Terminal Aerodrome Forecast
Issued by NWS

Home | Current Version | Previous Version | Text Only | Print | Product List | Glossary On
Versions: 1 2 3 4 5 6 7 8 9 10 11 12 13 14 15 16 17
000
FTUS46 KSEW 051415 AAA
TAFBFI
TAF AMD
KBFI 051415Z 0514/0612 15009KT P6SM -SHRA SCT025 BKN060
      TEMPO 0514/0518 BKN025 OVC060
     FM051800 16008KT P6SM BKN025 OVC035
      TEMPO 0520/0524 6SM -SHRA
     FM060000 16005KT P6SM SCT020 OVC035
      TEMPO 0600/0604 5SM -SN BKN013 OVC030
     FM060500 03008KT P6SM SCT030 BKN080=

USA.gov is the U.S. government's official web portal to all federal, state and local government web resources and services.